sensor_id;sensor_type;location;lat;lon;timestamp;temperature;humidity
31443;SHT31;18065;55.876;9.830;2023-04-05T00:01:10;22.20;49.05
31443;SHT31;18065;55.876;9.830;2023-04-05T00:03:42;22.21;49.00
31443;SHT31;18065;55.876;9.830;2023-04-05T00:06:11;22.21;48.99
31443;SHT31;18065;55.876;9.830;2023-04-05T00:08:40;22.20;49.02
31443;SHT31;18065;55.876;9.830;2023-04-05T00:11:14;22.18;49.01
31443;SHT31;18065;55.876;9.830;2023-04-05T00:13:42;22.20;49.04
31443;SHT31;18065;55.876;9.830;2023-04-05T00:16:10;22.18;49.06
31443;SHT31;18065;55.876;9.830;2023-04-05T00:18:41;22.18;49.06
31443;SHT31;18065;55.876;9.830;2023-04-05T00:21:10;22.18;49.07
31443;SHT31;18065;55.876;9.830;2023-04-05T00:23:39;22.18;49.03
31443;SHT31;18065;55.876;9.830;2023-04-05T00:26:09;22.18;49.01
31443;SHT31;18065;55.876;9.830;2023-04-05T00:28:37;22.18;49.07
31443;SHT31;18065;55.876;9.830;2023-04-05T00:31:06;22.18;49.04
31443;SHT31;18065;55.876;9.830;2023-04-05T00:33:34;22.17;49.05
31443;SHT31;18065;55.876;9.830;2023-04-05T00:36:12;22.16;49.07
31443;SHT31;18065;55.876;9.830;2023-04-05T00:38:41;22.16;49.06
31443;SHT31;18065;55.876;9.830;2023-04-05T00:41:09;22.16;49.03
31443;SHT31;18065;55.876;9.830;2023-04-05T00:43:38;22.18;49.04
31443;SHT31;18065;55.876;9.830;2023-04-05T00:46:07;22.16;49.04
31443;SHT31;18065;55.876;9.830;2023-04-05T00:48:36;22.17;49.06
31443;SHT31;18065;55.876;9.830;2023-04-05T00:51:05;22.16;49.05
31443;SHT31;18065;55.876;9.830;2023-04-05T00:53:38;22.13;49.07
31443;SHT31;18065;55.876;9.830;2023-04-05T00:56:09;22.17;49.04
31443;SHT31;18065;55.876;9.830;2023-04-05T00:58:37;22.16;49.02
31443;SHT31;18065;55.876;9.830;2023-04-05T01:01:07;22.13;49.03
31443;SHT31;18065;55.876;9.830;2023-04-05T01:03:40;22.14;49.04
31443;SHT31;18065;55.876;9.830;2023-04-05T01:06:12;22.13;49.04
31443;SHT31;18065;55.876;9.830;2023-04-05T01:08:48;22.14;49.05
31443;SHT31;18065;55.876;9.830;2023-04-05T01:11:20;22.16;49.02
31443;SHT31;18065;55.876;9.830;2023-04-05T01:13:49;22.13;49.02
31443;SHT31;18065;55.876;9.830;2023-04-05T01:16:17;22.14;48.98
31443;SHT31;18065;55.876;9.830;2023-04-05T01:18:45;22.13;48.96
31443;SHT31;18065;55.876;9.830;2023-04-05T01:21:20;22.10;49.01
31443;SHT31;18065;55.876;9.830;2023-04-05T01:23:58;22.13;49.23
31443;SHT31;18065;55.876;9.830;2023-04-05T01:26:45;22.11;49.16
31443;SHT31;18065;55.876;9.830;2023-04-05T01:32:06;22.11;49.04
31443;SHT31;18065;55.876;9.830;2023-04-05T01:34:39;22.11;49.08
31443;SHT31;18065;55.876;9.830;2023-04-05T01:37:10;22.11;49.04
31443;SHT31;18065;55.876;9.830;2023-04-05T01:39:39;22.13;49.01
31443;SHT31;18065;55.876;9.830;2023-04-05T01:42:07;22.11;48.99
31443;SHT31;18065;55.876;9.830;2023-04-05T01:44:37;22.08;49.00
31443;SHT31;18065;55.876;9.830;2023-04-05T01:47:08;22.10;49.00
31443;SHT31;18065;55.876;9.830;2023-04-05T01:49:36;22.07;48.99
31443;SHT31;18065;55.876;9.830;2023-04-05T01:52:04;22.10;49.01
31443;SHT31;18065;55.876;9.830;2023-04-05T01:54:33;22.07;49.01
31443;SHT31;18065;55.876;9.830;2023-04-05T01:57:01;22.07;48.98
31443;SHT31;18065;55.876;9.830;2023-04-05T01:59:30;22.06;48.99
31443;SHT31;18065;55.876;9.830;2023-04-05T02:01:58;22.08;48.99
31443;SHT31;18065;55.876;9.830;2023-04-05T02:04:29;22.07;48.96
31443;SHT31;18065;55.876;9.830;2023-04-05T02:06:58;22.06;48.98
31443;SHT31;18065;55.876;9.830;2023-04-05T02:09:27;22.07;48.97
31443;SHT31;18065;55.876;9.830;2023-04-05T02:11:55;22.07;48.94
31443;SHT31;18065;55.876;9.830;2023-04-05T02:14:23;22.07;48.92
31443;SHT31;18065;55.876;9.830;2023-04-05T02:16:52;22.07;48.94
31443;SHT31;18065;55.876;9.830;2023-04-05T02:19:20;22.06;48.97
31443;SHT31;18065;55.876;9.830;2023-04-05T02:21:52;22.04;48.96
31443;SHT31;18065;55.876;9.830;2023-04-05T02:24:21;22.04;48.94
31443;SHT31;18065;55.876;9.830;2023-04-05T02:26:49;22.06;48.96
31443;SHT31;18065;55.876;9.830;2023-04-05T02:29:17;22.06;48.96
31443;SHT31;18065;55.876;9.830;2023-04-05T02:31:46;22.03;48.94
31443;SHT31;18065;55.876;9.830;2023-04-05T02:34:14;22.01;48.96
31443;SHT31;18065;55.876;9.830;2023-04-05T02:36:42;22.04;48.94
31443;SHT31;18065;55.876;9.830;2023-04-05T02:39:14;22.03;48.92
31443;SHT31;18065;55.876;9.830;2023-04-05T02:41:42;22.01;48.92
31443;SHT31;18065;55.876;9.830;2023-04-05T02:44:11;22.01;48.91
31443;SHT31;18065;55.876;9.830;2023-04-05T02:46:39;22.01;48.98
31443;SHT31;18065;55.876;9.830;2023-04-05T02:49:08;22.03;48.97
31443;SHT31;18065;55.876;9.830;2023-04-05T02:51:36;22.01;49.00
31443;SHT31;18065;55.876;9.830;2023-04-05T02:54:05;22.03;48.97
31443;SHT31;18065;55.876;9.830;2023-04-05T02:56:36;22.00;48.97
31443;SHT31;18065;55.876;9.830;2023-04-05T02:59:04;22.00;49.02
31443;SHT31;18065;55.876;9.830;2023-04-05T03:01:33;22.00;49.01
31443;SHT31;18065;55.876;9.830;2023-04-05T03:04:02;22.01;49.01
31443;SHT31;18065;55.876;9.830;2023-04-05T03:06:31;22.00;49.02
31443;SHT31;18065;55.876;9.830;2023-04-05T03:08:59;22.00;49.00
31443;SHT31;18065;55.876;9.830;2023-04-05T03:11:28;22.00;49.04
31443;SHT31;18065;55.876;9.830;2023-04-05T03:13:59;21.98;49.13
31443;SHT31;18065;55.876;9.830;2023-04-05T03:16:28;21.98;49.20
31443;SHT31;18065;55.876;9.830;2023-04-05T03:18:56;21.98;49.32
31443;SHT31;18065;55.876;9.830;2023-04-05T03:21:25;21.97;49.44
31443;SHT31;18065;55.876;9.830;2023-04-05T03:23:53;21.97;49.58
31443;SHT31;18065;55.876;9.830;2023-04-05T03:26:22;21.96;49.66
31443;SHT31;18065;55.876;9.830;2023-04-05T03:28:51;21.98;49.67
31443;SHT31;18065;55.876;9.830;2023-04-05T03:31:22;22.00;49.72
31443;SHT31;18065;55.876;9.830;2023-04-05T03:33:53;21.98;49.82
31443;SHT31;18065;55.876;9.830;2023-04-05T03:36:21;21.97;49.91
31443;SHT31;18065;55.876;9.830;2023-04-05T03:38:53;21.97;49.98
31443;SHT31;18065;55.876;9.830;2023-04-05T03:41:21;21.94;50.08
31443;SHT31;18065;55.876;9.830;2023-04-05T03:43:50;21.97;50.09
31443;SHT31;18065;55.876;9.830;2023-04-05T03:46:18;22.00;50.11
31443;SHT31;18065;55.876;9.830;2023-04-05T03:48:49;21.98;50.35
31443;SHT31;18065;55.876;9.830;2023-04-05T03:51:17;21.98;50.46
31443;SHT31;18065;55.876;9.830;2023-04-05T03:53:46;21.97;50.36
31443;SHT31;18065;55.876;9.830;2023-04-05T03:56:14;21.96;50.31
31443;SHT31;18065;55.876;9.830;2023-04-05T03:58:43;21.96;50.22
31443;SHT31;18065;55.876;9.830;2023-04-05T04:01:11;21.97;50.15
31443;SHT31;18065;55.876;9.830;2023-04-05T04:03:40;21.98;50.12
31443;SHT31;18065;55.876;9.830;2023-04-05T04:06:11;21.97;50.01
31443;SHT31;18065;55.876;9.830;2023-04-05T04:08:40;21.96;49.91
31443;SHT31;18065;55.876;9.830;2023-04-05T04:11:08;21.96;49.85
31443;SHT31;18065;55.876;9.830;2023-04-05T04:13:36;21.96;49.82
31443;SHT31;18065;55.876;9.830;2023-04-05T04:16:05;21.94;49.79
31443;SHT31;18065;55.876;9.830;2023-04-05T04:18:33;21.96;49.78
31443;SHT31;18065;55.876;9.830;2023-04-05T04:21:02;21.96;49.76
31443;SHT31;18065;55.876;9.830;2023-04-05T04:23:34;21.96;49.74
31443;SHT31;18065;55.876;9.830;2023-04-05T04:26:04;21.96;49.68
31443;SHT31;18065;55.876;9.830;2023-04-05T04:28:33;21.93;49.64
31443;SHT31;18065;55.876;9.830;2023-04-05T04:31:03;21.94;49.60
31443;SHT31;18065;55.876;9.830;2023-04-05T04:33:33;21.93;49.62
31443;SHT31;18065;55.876;9.830;2023-04-05T04:36:04;21.92;49.60
31443;SHT31;18065;55.876;9.830;2023-04-05T04:38:36;21.94;49.64
31443;SHT31;18065;55.876;9.830;2023-04-05T04:41:07;21.93;49.67
31443;SHT31;18065;55.876;9.830;2023-04-05T04:43:38;21.92;49.64
31443;SHT31;18065;55.876;9.830;2023-04-05T04:46:09;21.93;49.62
31443;SHT31;18065;55.876;9.830;2023-04-05T04:48:39;21.92;49.61
31443;SHT31;18065;55.876;9.830;2023-04-05T04:51:07;21.92;49.58
31443;SHT31;18065;55.876;9.830;2023-04-05T04:53:38;21.93;49.65
31443;SHT31;18065;55.876;9.830;2023-04-05T04:56:07;21.92;49.62
31443;SHT31;18065;55.876;9.830;2023-04-05T04:58:36;21.92;49.59
31443;SHT31;18065;55.876;9.830;2023-04-05T05:01:06;21.93;49.62
31443;SHT31;18065;55.876;9.830;2023-04-05T05:03:35;21.92;49.62
31443;SHT31;18065;55.876;9.830;2023-04-05T05:06:04;21.90;49.58
31443;SHT31;18065;55.876;9.830;2023-04-05T05:08:33;21.90;49.60
31443;SHT31;18065;55.876;9.830;2023-04-05T05:11:04;21.90;49.64
31443;SHT31;18065;55.876;9.830;2023-04-05T05:13:33;21.89;49.63
31443;SHT31;18065;55.876;9.830;2023-04-05T05:16:02;21.92;49.60
31443;SHT31;18065;55.876;9.830;2023-04-05T05:18:31;21.90;49.60
31443;SHT31;18065;55.876;9.830;2023-04-05T05:20:59;21.90;49.64
31443;SHT31;18065;55.876;9.830;2023-04-05T05:23:28;21.92;49.60
31443;SHT31;18065;55.876;9.830;2023-04-05T05:25:56;21.92;49.56
31443;SHT31;18065;55.876;9.830;2023-04-05T05:28:27;21.89;49.59
31443;SHT31;18065;55.876;9.830;2023-04-05T05:30:56;21.93;49.59
31443;SHT31;18065;55.876;9.830;2023-04-05T05:33:25;21.89;49.58
31443;SHT31;18065;55.876;9.830;2023-04-05T05:35:53;21.90;49.63
31443;SHT31;18065;55.876;9.830;2023-04-05T05:38:22;21.90;49.60
31443;SHT31;18065;55.876;9.830;2023-04-05T05:40:53;21.89;49.58
31443;SHT31;18065;55.876;9.830;2023-04-05T05:43:22;21.90;49.59
31443;SHT31;18065;55.876;9.830;2023-04-05T05:45:53;21.89;49.59
31443;SHT31;18065;55.876;9.830;2023-04-05T05:48:21;21.89;49.62
31443;SHT31;18065;55.876;9.830;2023-04-05T05:50:50;21.87;49.60
31443;SHT31;18065;55.876;9.830;2023-04-05T05:53:18;21.87;49.58
31443;SHT31;18065;55.876;9.830;2023-04-05T05:55:47;21.89;49.56
31443;SHT31;18065;55.876;9.830;2023-04-05T05:58:15;21.89;49.59
31443;SHT31;18065;55.876;9.830;2023-04-05T06:00:43;21.89;49.60
31443;SHT31;18065;55.876;9.830;2023-04-05T06:03:14;21.89;49.65
31443;SHT31;18065;55.876;9.830;2023-04-05T06:05:49;21.90;49.63
31443;SHT31;18065;55.876;9.830;2023-04-05T06:08:21;21.89;49.65
31443;SHT31;18065;55.876;9.830;2023-04-05T06:10:51;21.87;49.68
31443;SHT31;18065;55.876;9.830;2023-04-05T06:13:19;21.89;49.65
31443;SHT31;18065;55.876;9.830;2023-04-05T06:15:47;21.89;49.64
31443;SHT31;18065;55.876;9.830;2023-04-05T06:18:18;21.89;49.67
31443;SHT31;18065;55.876;9.830;2023-04-05T06:20:47;21.90;49.69
31443;SHT31;18065;55.876;9.830;2023-04-05T06:23:16;21.90;49.67
31443;SHT31;18065;55.876;9.830;2023-04-05T06:25:44;21.89;49.67
31443;SHT31;18065;55.876;9.830;2023-04-05T06:28:12;21.89;49.68
31443;SHT31;18065;55.876;9.830;2023-04-05T06:30:41;21.89;49.66
31443;SHT31;18065;55.876;9.830;2023-04-05T06:33:09;21.89;49.70
31443;SHT31;18065;55.876;9.830;2023-04-05T06:35:40;21.87;49.66
31443;SHT31;18065;55.876;9.830;2023-04-05T06:38:08;21.90;49.75
31443;SHT31;18065;55.876;9.830;2023-04-05T06:40:37;21.87;49.85
31443;SHT31;18065;55.876;9.830;2023-04-05T06:43:05;21.89;49.95
31443;SHT31;18065;55.876;9.830;2023-04-05T06:45:34;21.92;50.01
31443;SHT31;18065;55.876;9.830;2023-04-05T06:48:03;21.87;50.05
31443;SHT31;18065;55.876;9.830;2023-04-05T06:50:31;21.89;50.10
31443;SHT31;18065;55.876;9.830;2023-04-05T06:53:02;21.89;50.12
31443;SHT31;18065;55.876;9.830;2023-04-05T06:55:32;21.89;50.15
31443;SHT31;18065;55.876;9.830;2023-04-05T06:58:00;21.90;50.14
31443;SHT31;18065;55.876;9.830;2023-04-05T07:00:29;21.90;50.11
31443;SHT31;18065;55.876;9.830;2023-04-05T07:02:57;21.92;50.10
31443;SHT31;18065;55.876;9.830;2023-04-05T07:05:25;21.96;50.06
31443;SHT31;18065;55.876;9.830;2023-04-05T07:07:54;21.94;50.03
31443;SHT31;18065;55.876;9.830;2023-04-05T07:10:25;21.93;50.07
31443;SHT31;18065;55.876;9.830;2023-04-05T07:12:53;21.96;50.04
31443;SHT31;18065;55.876;9.830;2023-04-05T07:15:21;21.97;49.97
31443;SHT31;18065;55.876;9.830;2023-04-05T07:17:50;22.01;49.88
31443;SHT31;18065;55.876;9.830;2023-04-05T07:20:18;22.04;49.78
31443;SHT31;18065;55.876;9.830;2023-04-05T07:22:46;22.00;49.84
31443;SHT31;18065;55.876;9.830;2023-04-05T07:25:15;22.01;49.83
31443;SHT31;18065;55.876;9.830;2023-04-05T07:27:46;22.00;49.82
31443;SHT31;18065;55.876;9.830;2023-04-05T07:30:14;22.00;49.86
31443;SHT31;18065;55.876;9.830;2023-04-05T07:32:42;22.00;49.86
31443;SHT31;18065;55.876;9.830;2023-04-05T07:35:11;22.03;49.86
31443;SHT31;18065;55.876;9.830;2023-04-05T07:37:39;22.01;49.80
31443;SHT31;18065;55.876;9.830;2023-04-05T07:40:08;22.01;49.91
31443;SHT31;18065;55.876;9.830;2023-04-05T07:42:37;22.03;49.87
31443;SHT31;18065;55.876;9.830;2023-04-05T07:45:09;22.04;49.87
31443;SHT31;18065;55.876;9.830;2023-04-05T07:47:38;22.06;49.77
31443;SHT31;18065;55.876;9.830;2023-04-05T07:50:06;22.08;49.86
31443;SHT31;18065;55.876;9.830;2023-04-05T07:52:39;22.06;49.86
31443;SHT31;18065;55.876;9.830;2023-04-05T07:55:07;22.08;49.84
31443;SHT31;18065;55.876;9.830;2023-04-05T07:57:36;22.10;49.87
31443;SHT31;18065;55.876;9.830;2023-04-05T08:00:05;22.10;49.88
31443;SHT31;18065;55.876;9.830;2023-04-05T08:02:39;22.10;49.89
31443;SHT31;18065;55.876;9.830;2023-04-05T08:05:07;22.10;49.91
31443;SHT31;18065;55.876;9.830;2023-04-05T08:07:36;22.13;49.93
31443;SHT31;18065;55.876;9.830;2023-04-05T08:10:05;22.13;49.94
31443;SHT31;18065;55.876;9.830;2023-04-05T08:12:33;22.13;49.94
31443;SHT31;18065;55.876;9.830;2023-04-05T08:15:02;22.16;49.99
31443;SHT31;18065;55.876;9.830;2023-04-05T08:17:30;22.13;50.02
31443;SHT31;18065;55.876;9.830;2023-04-05T08:20:01;22.13;49.99
31443;SHT31;18065;55.876;9.830;2023-04-05T08:22:30;22.13;50.03
31443;SHT31;18065;55.876;9.830;2023-04-05T08:24:58;22.16;50.03
31443;SHT31;18065;55.876;9.830;2023-04-05T08:27:26;22.16;50.03
31443;SHT31;18065;55.876;9.830;2023-04-05T08:29:55;22.17;50.02
31443;SHT31;18065;55.876;9.830;2023-04-05T08:32:23;22.14;50.03
31443;SHT31;18065;55.876;9.830;2023-04-05T08:34:51;22.17;50.09
31443;SHT31;18065;55.876;9.830;2023-04-05T08:37:22;22.20;50.08
31443;SHT31;18065;55.876;9.830;2023-04-05T08:39:51;22.17;50.15
31443;SHT31;18065;55.876;9.830;2023-04-05T08:42:22;22.21;50.15
31443;SHT31;18065;55.876;9.830;2023-04-05T08:44:51;22.20;50.09
31443;SHT31;18065;55.876;9.830;2023-04-05T08:47:19;22.18;50.10
31443;SHT31;18065;55.876;9.830;2023-04-05T08:49:48;22.18;50.09
31443;SHT31;18065;55.876;9.830;2023-04-05T08:52:16;22.18;50.06
31443;SHT31;18065;55.876;9.830;2023-04-05T08:54:48;22.21;50.08
31443;SHT31;18065;55.876;9.830;2023-04-05T08:57:18;22.22;50.07
31443;SHT31;18065;55.876;9.830;2023-04-05T08:59:49;22.20;50.10
31443;SHT31;18065;55.876;9.830;2023-04-05T09:02:18;22.22;50.11
31443;SHT31;18065;55.876;9.830;2023-04-05T09:04:49;22.22;50.10
31443;SHT31;18065;55.876;9.830;2023-04-05T09:07:18;22.21;50.10
31443;SHT31;18065;55.876;9.830;2023-04-05T09:09:51;22.24;50.09
31443;SHT31;18065;55.876;9.830;2023-04-05T09:12:20;22.20;49.94
31443;SHT31;18065;55.876;9.830;2023-04-05T09:14:48;22.21;50.05
31443;SHT31;18065;55.876;9.830;2023-04-05T09:17:17;22.22;50.03
31443;SHT31;18065;55.876;9.830;2023-04-05T09:19:46;22.20;50.00
31443;SHT31;18065;55.876;9.830;2023-04-05T09:22:14;22.21;49.98
31443;SHT31;18065;55.876;9.830;2023-04-05T09:24:44;22.21;50.07
31443;SHT31;18065;55.876;9.830;2023-04-05T09:27:16;22.21;50.06
31443;SHT31;18065;55.876;9.830;2023-04-05T09:29:45;22.21;50.04
31443;SHT31;18065;55.876;9.830;2023-04-05T09:32:14;22.21;50.04
31443;SHT31;18065;55.876;9.830;2023-04-05T09:34:43;22.18;49.92
31443;SHT31;18065;55.876;9.830;2023-04-05T09:37:12;22.18;49.77
31443;SHT31;18065;55.876;9.830;2023-04-05T09:39:41;22.17;49.95
31443;SHT31;18065;55.876;9.830;2023-04-05T09:42:10;22.20;49.99
31443;SHT31;18065;55.876;9.830;2023-04-05T09:44:55;22.20;50.07
31443;SHT31;18065;55.876;9.830;2023-04-05T09:47:27;22.18;50.11
31443;SHT31;18065;55.876;9.830;2023-04-05T09:49:56;22.17;50.16
31443;SHT31;18065;55.876;9.830;2023-04-05T09:52:25;22.17;50.35
31443;SHT31;18065;55.876;9.830;2023-04-05T09:54:56;22.18;50.90
31443;SHT31;18065;55.876;9.830;2023-04-05T09:57:25;22.21;51.22
31443;SHT31;18065;55.876;9.830;2023-04-05T09:59:57;22.25;51.75
31443;SHT31;18065;55.876;9.830;2023-04-05T10:02:33;22.28;51.60
31443;SHT31;18065;55.876;9.830;2023-04-05T10:05:04;22.28;51.35
31443;SHT31;18065;55.876;9.830;2023-04-05T10:07:35;22.31;51.55
31443;SHT31;18065;55.876;9.830;2023-04-05T10:10:05;22.37;51.71
31443;SHT31;18065;55.876;9.830;2023-04-05T10:12:33;22.39;51.46
31443;SHT31;18065;55.876;9.830;2023-04-05T10:15:09;22.37;51.50
31443;SHT31;18065;55.876;9.830;2023-04-05T10:17:42;22.41;51.48
31443;SHT31;18065;55.876;9.830;2023-04-05T10:20:14;22.37;51.57
31443;SHT31;18065;55.876;9.830;2023-04-05T10:22:58;22.41;51.55
31443;SHT31;18065;55.876;9.830;2023-04-05T10:25:30;22.45;51.95
31443;SHT31;18065;55.876;9.830;2023-04-05T10:28:03;22.44;51.77
31443;SHT31;18065;55.876;9.830;2023-04-05T10:30:38;22.47;51.69
31443;SHT31;18065;55.876;9.830;2023-04-05T10:33:10;22.45;51.91
31443;SHT31;18065;55.876;9.830;2023-04-05T10:35:44;22.47;51.68
31443;SHT31;18065;55.876;9.830;2023-04-05T10:38:16;22.48;51.61
31443;SHT31;18065;55.876;9.830;2023-04-05T10:40:47;22.49;51.54
31443;SHT31;18065;55.876;9.830;2023-04-05T10:43:18;22.49;51.48
31443;SHT31;18065;55.876;9.830;2023-04-05T10:45:50;22.49;51.37
31443;SHT31;18065;55.876;9.830;2023-04-05T10:48:27;22.49;51.37
31443;SHT31;18065;55.876;9.830;2023-04-05T10:50:57;22.49;51.35
31443;SHT31;18065;55.876;9.830;2023-04-05T10:53:25;22.51;51.33
31443;SHT31;18065;55.876;9.830;2023-04-05T10:55:54;22.51;51.32
31443;SHT31;18065;55.876;9.830;2023-04-05T10:58:23;22.54;51.33
31443;SHT31;18065;55.876;9.830;2023-04-05T11:00:54;22.54;51.35
31443;SHT31;18065;55.876;9.830;2023-04-05T11:08:55;22.55;51.45
31443;SHT31;18065;55.876;9.830;2023-04-05T11:11:24;22.55;51.51
31443;SHT31;18065;55.876;9.830;2023-04-05T11:13:53;22.56;51.51
31443;SHT31;18065;55.876;9.830;2023-04-05T11:16:37;22.59;51.46
31443;SHT31;18065;55.876;9.830;2023-04-05T11:19:05;22.56;51.51
31443;SHT31;18065;55.876;9.830;2023-04-05T11:21:34;22.62;51.55
31443;SHT31;18065;55.876;9.830;2023-04-05T11:24:03;22.59;51.57
31443;SHT31;18065;55.876;9.830;2023-04-05T11:26:32;22.61;51.65
31443;SHT31;18065;55.876;9.830;2023-04-05T11:29:01;22.62;51.65
31443;SHT31;18065;55.876;9.830;2023-04-05T11:31:32;22.61;51.73
31443;SHT31;18065;55.876;9.830;2023-04-05T11:34:02;22.62;51.69
31443;SHT31;18065;55.876;9.830;2023-04-05T11:36:36;22.62;51.73
31443;SHT31;18065;55.876;9.830;2023-04-05T11:41:52;22.66;51.79
31443;SHT31;18065;55.876;9.830;2023-04-05T11:44:21;22.65;51.86
31443;SHT31;18065;55.876;9.830;2023-04-05T11:46:52;22.66;51.81
31443;SHT31;18065;55.876;9.830;2023-04-05T11:49:21;22.66;51.96
31443;SHT31;18065;55.876;9.830;2023-04-05T11:51:50;22.64;52.03
31443;SHT31;18065;55.876;9.830;2023-04-05T11:54:29;22.66;52.02
31443;SHT31;18065;55.876;9.830;2023-04-05T11:56:58;22.69;52.07
31443;SHT31;18065;55.876;9.830;2023-04-05T11:59:28;22.68;52.08
31443;SHT31;18065;55.876;9.830;2023-04-05T12:02:00;22.71;52.08
31443;SHT31;18065;55.876;9.830;2023-04-05T12:04:29;22.69;52.17
31443;SHT31;18065;55.876;9.830;2023-04-05T12:07:11;22.72;52.20
31443;SHT31;18065;55.876;9.830;2023-04-05T12:12:23;22.71;52.25
31443;SHT31;18065;55.876;9.830;2023-04-05T12:14:57;22.73;52.38
31443;SHT31;18065;55.876;9.830;2023-04-05T12:17:41;22.71;52.47
31443;SHT31;18065;55.876;9.830;2023-04-05T12:20:10;22.75;53.13
31443;SHT31;18065;55.876;9.830;2023-04-05T12:22:40;22.73;53.50
